createdAt,value
2019-02-16T21:17:46.760Z,98572.52
2019-02-16T21:20:51.101Z,98578.81
2019-02-16T21:23:32.924Z,98576.18
2019-02-16T21:26:11.853Z,98582.75
2019-02-16T21:28:49.409Z,98581.97
2019-02-16T21:31:34.513Z,98576.85
2019-02-16T21:34:08.986Z,98578.27
2019-02-16T21:36:40.832Z,98579.63
2019-02-16T21:39:35.023Z,98585.33
2019-02-16T21:42:20.264Z,98578.70
2019-02-16T21:44:55.504Z,98587.39
2019-02-16T21:47:42.082Z,98587.25
2019-02-16T21:50:40.358Z,98588.44
2019-02-16T21:53:21.358Z,98590.95
2019-02-16T21:56:01.517Z,98591.86
2019-02-16T21:59:03.067Z,98589.88
2019-02-16T22:01:48.270Z,98588.39
2019-02-16T22:04:33.509Z,98587.92
2019-02-16T22:07:21.612Z,98591.45
2019-02-16T22:10:14.122Z,98588.49
2019-02-16T22:13:01.466Z,98592.67
2019-02-16T22:15:28.173Z,98594.69
2019-02-16T22:17:54.879Z,98589.71
2019-02-16T22:20:21.556Z,98584.56
2019-02-16T22:22:48.303Z,98580.95
2019-02-16T22:25:14.995Z,98586.45
2019-02-16T22:27:41.761Z,98588.30
2019-02-16T22:30:08.772Z,98581.98
2019-02-16T22:32:35.454Z,98577.84
2019-02-16T22:35:02.295Z,98580.36
2019-02-16T22:37:29.163Z,98584.03
2019-02-16T22:40:01.759Z,98586.72
2019-02-16T22:42:28.575Z,98590.58
2019-02-16T22:44:55.329Z,98579.77
2019-02-16T22:47:22.068Z,98586.60
2019-02-16T22:49:49.899Z,98584.83
2019-02-16T22:52:16.680Z,98585.51
2019-02-16T22:54:43.467Z,98578.37
2019-02-16T22:57:10.128Z,98581.21
2019-02-16T22:59:36.767Z,98577.39
2019-02-16T23:02:04.116Z,98578.58
2019-02-16T23:04:30.779Z,98582.42
2019-02-16T23:06:57.620Z,98580.76
2019-02-16T23:09:28.517Z,98573.77
2019-02-16T23:11:55.175Z,98570.63
2019-02-16T23:14:24.136Z,98574.63
2019-02-16T23:16:50.398Z,98576.19
2019-02-16T23:19:17.083Z,98569.70
2019-02-16T23:21:43.603Z,98572.22
2019-02-16T23:24:10.432Z,98571.56
2019-02-16T23:26:37.246Z,98567.42
2019-02-16T23:29:03.915Z,98566.09
2019-02-16T23:31:30.570Z,98566.77
2019-02-16T23:33:57.302Z,98563.95
2019-02-16T23:36:23.960Z,98563.95
2019-02-16T23:38:50.699Z,98565.95
2019-02-16T23:41:17.375Z,98566.63
2019-02-16T23:43:43.923Z,98569.14
2019-02-16T23:46:10.651Z,98567.16
2019-02-16T23:48:37.343Z,98571.66
2019-02-16T23:51:04.013Z,98568.99
2019-02-16T23:53:30.690Z,98564.55
2019-02-16T23:55:57.389Z,98567.88
2019-02-16T23:58:24.065Z,98566.40
